createdAt,value
2019-02-03T00:00:14.849Z,96164.82
2019-02-03T00:03:23.205Z,96171.02
2019-02-03T00:06:30.221Z,96176.81
2019-02-03T00:09:37.598Z,96170.55
2019-02-03T00:12:44.625Z,96178.19
2019-02-03T00:15:54.648Z,96173.38
2019-02-03T00:19:01.636Z,96174.66
2019-02-03T00:22:09.225Z,96169.97
2019-02-03T00:25:16.239Z,96175.14
2019-02-03T00:28:23.166Z,96174.19
2019-02-03T00:31:30.398Z,96172.20
2019-02-03T00:34:37.327Z,96166.81
2019-02-03T00:37:44.415Z,96170.44
2019-02-03T00:40:51.475Z,96170.66
2019-02-03T00:43:59.867Z,96168.64
2019-02-03T00:47:06.833Z,96168.66
2019-02-03T00:50:15.415Z,96173.55
2019-02-03T00:53:22.517Z,96170.76
2019-02-03T00:56:29.672Z,96164.38
2019-02-03T00:59:36.711Z,96160.67
2019-02-03T01:02:45.590Z,96159.07
2019-02-03T01:05:52.510Z,96157.27
2019-02-03T01:09:14.391Z,96167.67
2019-02-03T01:12:21.440Z,96172.61
2019-02-03T01:15:32.342Z,96180.47
2019-02-03T01:18:38.683Z,96188.89
2019-02-03T01:21:45.715Z,96197.33
2019-02-03T01:24:52.764Z,96206.27
2019-02-03T01:27:59.920Z,96201.12
2019-02-03T01:31:06.932Z,96202.16
2019-02-03T01:34:14.034Z,96201.80
2019-02-03T01:37:22.005Z,96218.88
2019-02-03T01:40:29.075Z,96216.44
2019-02-03T01:43:36.021Z,96225.70
2019-02-03T01:46:46.186Z,96228.70
2019-02-03T01:49:53.669Z,96225.72
2019-02-03T01:53:01.905Z,96227.75
2019-02-03T01:56:08.947Z,96235.78
2019-02-03T01:59:15.994Z,96248.09
2019-02-03T02:02:24.254Z,96254.64
2019-02-03T02:05:31.985Z,96249.19
2019-02-03T02:08:38.931Z,96252.11
2019-02-03T02:11:45.965Z,96259.72
2019-02-03T02:14:53.026Z,96271.65
2019-02-03T02:18:00.190Z,96270.30
2019-02-03T02:21:07.210Z,96272.63
2019-02-03T02:24:14.347Z,96271.23
2019-02-03T02:27:21.266Z,96277.88
2019-02-03T02:30:28.479Z,96283.28
2019-02-03T02:33:35.551Z,96285.41
2019-02-03T02:36:43.029Z,96286.27
2019-02-03T02:39:50.112Z,96295.48
2019-02-03T02:42:57.203Z,96306.86
2019-02-03T02:46:04.217Z,96307.67
2019-02-03T02:49:11.329Z,96310.58
2019-02-03T02:52:21.280Z,96311.77
2019-02-03T02:55:29.387Z,96317.49
2019-02-03T02:58:36.517Z,96323.70
2019-02-03T03:01:43.960Z,96321.63
2019-02-03T03:04:51.008Z,96326.30
2019-02-03T03:07:58.044Z,96319.52
2019-02-03T03:11:05.385Z,96322.08
2019-02-03T03:14:12.616Z,96325.84
2019-02-03T03:17:19.545Z,96327.55
2019-02-03T03:20:26.596Z,96320.42
2019-02-03T03:23:36.531Z,96314.52
2019-02-03T03:26:43.840Z,96318.78
2019-02-03T03:29:50.890Z,96336.78
2019-02-03T03:32:57.988Z,96334.64
2019-02-03T03:36:05.634Z,96343.34
2019-02-03T03:39:12.658Z,96337.58
2019-02-03T03:42:19.658Z,96336.49
2019-02-03T03:45:27.187Z,96344.47
2019-02-03T03:48:34.137Z,96354.92
2019-02-03T03:51:42.407Z,96355.33
2019-02-03T03:54:49.348Z,96366.55
2019-02-03T03:57:56.869Z,96369.88
2019-02-03T04:01:04.031Z,96364.62
2019-02-03T04:04:11.168Z,96368.77
2019-02-03T04:07:18.079Z,96370.84
2019-02-03T04:10:25.880Z,96375.09
2019-02-03T04:13:33.059Z,96380.45
2019-02-03T04:16:40.095Z,96378.38
2019-02-03T04:19:47.195Z,96381.66
2019-02-03T04:22:56.226Z,96389.77
2019-02-03T04:26:03.183Z,96385.20
2019-02-03T04:29:12.273Z,96380.52
2019-02-03T04:32:19.195Z,96385.58
2019-02-03T04:35:26.742Z,96388.92
2019-02-03T04:38:33.674Z,96391.08
2019-02-03T04:41:40.854Z,96391.99
2019-02-03T04:44:50.577Z,96391.14
2019-02-03T04:47:57.934Z,96389.56
2019-02-03T04:51:05.054Z,96407.27
2019-02-03T04:54:12.213Z,96409.69
2019-02-03T04:57:19.486Z,96426.50
2019-02-03T05:00:29.831Z,96419.37
2019-02-03T05:03:37.037Z,96420.68
2019-02-03T05:06:44.179Z,96414.05
2019-02-03T05:09:51.209Z,96415.18
2019-02-03T05:12:58.214Z,96404.37
2019-02-03T05:16:05.336Z,96408.55
2019-02-03T05:19:12.450Z,96415.64
2019-02-03T05:22:19.445Z,96412.70
2019-02-03T05:25:27.476Z,96415.27
2019-02-03T05:28:35.573Z,96419.86
2019-02-03T05:31:44.249Z,96426.13
2019-02-03T05:34:51.470Z,96433.73
2019-02-03T05:37:59.528Z,96436.65
2019-02-03T05:41:06.467Z,96441.69
2019-02-03T05:44:13.503Z,96438.67
2019-02-03T05:47:20.935Z,96446.27
2019-02-03T05:50:27.981Z,96442.13
2019-02-03T05:53:35.131Z,96445.41
2019-02-03T05:56:42.139Z,96446.76
2019-02-03T05:59:49.080Z,96463.84
2019-02-03T06:02:56.411Z,96471.42
2019-02-03T06:06:03.759Z,96474.34
2019-02-03T06:09:11.051Z,96493.28
2019-02-03T06:12:20.377Z,96494.52
2019-02-03T06:15:27.370Z,96490.74
2019-02-03T06:18:38.589Z,96494.48
2019-02-03T06:21:45.785Z,96508.26
2019-02-03T06:24:52.734Z,96505.79
2019-02-03T06:27:59.763Z,96507.09
2019-02-03T06:31:14.422Z,96505.34
2019-02-03T06:34:21.209Z,96512.11
2019-02-03T06:37:28.178Z,96512.51
2019-02-03T06:40:35.188Z,96509.16
2019-02-03T06:43:42.118Z,96509.58
2019-02-03T06:47:12.931Z,96509.14
2019-02-03T06:50:19.864Z,96503.73
2019-02-03T06:53:26.890Z,96507.93
2019-02-03T06:56:36.864Z,96504.56
2019-02-03T06:59:51.076Z,96496.15
2019-02-03T07:02:52.421Z,96480.69
2019-02-03T07:05:59.868Z,96469.77
2019-02-03T07:09:09.797Z,96473.54
2019-02-03T07:12:16.752Z,96466.86
2019-02-03T07:15:26.959Z,96459.73
2019-02-03T07:18:36.884Z,96470.60
2019-02-03T07:21:43.951Z,96466.39
2019-02-03T07:24:50.946Z,96480.23
2019-02-03T07:27:57.893Z,96493.20
2019-02-03T07:31:41.056Z,96515.42
2019-02-03T07:34:48.127Z,96533.00
2019-02-03T07:37:55.253Z,96544.35
2019-02-03T07:41:02.483Z,96561.88
2019-02-03T07:44:09.967Z,96568.20
2019-02-03T07:47:17.915Z,96578.64
2019-02-03T07:50:24.928Z,96584.53
2019-02-03T07:53:34.832Z,96582.01
2019-02-03T07:56:41.870Z,96579.09
2019-02-03T07:59:49.237Z,96586.66
2019-02-03T08:02:56.379Z,96600.91
2019-02-03T08:06:04.928Z,96598.02
2019-02-03T08:09:12.823Z,96608.47
2019-02-03T08:12:19.826Z,96604.70
2019-02-03T08:15:27.075Z,96611.45
2019-02-03T08:18:34.003Z,96619.38
2019-02-03T08:21:41.306Z,96624.01
2019-02-03T08:24:48.380Z,96632.36
2019-02-03T08:27:55.536Z,96623.54
2019-02-03T08:31:02.545Z,96628.61
2019-02-03T08:34:09.933Z,96637.41
2019-02-03T08:37:20.095Z,96633.20
2019-02-03T08:40:36.493Z,96639.91
2019-02-03T08:43:36.072Z,96639.12
2019-02-03T08:46:45.467Z,96635.38
2019-02-03T08:49:52.441Z,96639.13
2019-02-03T08:52:59.461Z,96647.11
2019-02-03T08:56:06.511Z,96647.96
2019-02-03T08:59:13.631Z,96643.80
2019-02-03T09:02:20.739Z,96644.59
2019-02-03T09:05:27.720Z,96657.16
2019-02-03T09:08:36.024Z,96654.66
2019-02-03T09:11:43.084Z,96659.28
2019-02-03T09:14:50.088Z,96661.36
2019-02-03T09:17:57.122Z,96667.63
2019-02-03T09:21:04.155Z,96670.13
2019-02-03T09:24:11.257Z,96680.22
2019-02-03T09:27:21.364Z,96683.19
2019-02-03T09:30:33.880Z,96690.33
2019-02-03T09:33:42.488Z,96686.56
2019-02-03T09:36:49.687Z,96698.28
2019-02-03T09:39:56.712Z,96696.17
2019-02-03T09:43:06.184Z,96710.01
2019-02-03T09:46:13.304Z,96715.03
2019-02-03T09:49:20.283Z,96723.02
2019-02-03T09:52:27.203Z,96726.34
2019-02-03T09:55:35.870Z,96729.72
2019-02-03T09:58:43.173Z,96734.75
2019-02-03T10:01:50.228Z,96738.92
2019-02-03T10:04:57.537Z,96735.14
2019-02-03T10:08:04.978Z,96736.41
2019-02-03T10:11:13.207Z,96740.17
2019-02-03T10:14:20.176Z,96743.12
2019-02-03T10:17:27.059Z,96741.02
2019-02-03T10:20:34.069Z,96745.65
2019-02-03T10:23:41.099Z,96745.64
2019-02-03T10:26:48.109Z,96743.54
2019-02-03T10:29:55.107Z,96745.20
2019-02-03T10:33:04.474Z,96745.20
2019-02-03T10:36:11.739Z,96746.06
2019-02-03T10:39:19.076Z,96745.65
2019-02-03T10:42:26.115Z,96749.41
2019-02-03T10:45:33.936Z,96744.80
2019-02-03T10:48:42.636Z,96748.98
2019-02-03T10:51:49.687Z,96747.31
2019-02-03T10:54:56.702Z,96742.69
2019-02-03T10:58:04.894Z,96741.02
2019-02-03T11:01:14.057Z,96741.02
2019-02-03T11:04:21.084Z,96748.16
2019-02-03T11:07:28.388Z,96749.83
2019-02-03T11:10:35.618Z,96753.14
2019-02-03T11:13:42.937Z,96759.43
2019-02-03T11:16:50.018Z,96770.75
2019-02-03T11:19:58.884Z,96765.72
2019-02-03T11:23:05.984Z,96769.94
2019-02-03T11:26:12.942Z,96785.02
2019-02-03T11:29:20.431Z,96787.09
2019-02-03T11:32:27.417Z,96795.91
2019-02-03T11:35:34.546Z,96787.09
2019-02-03T11:38:41.676Z,96786.69
2019-02-03T11:41:49.671Z,96786.28
2019-02-03T11:44:56.791Z,96786.69
2019-02-03T11:48:04.853Z,96786.28
2019-02-03T11:51:12.157Z,96793.39
2019-02-03T11:54:19.383Z,96802.63
2019-02-03T11:57:26.388Z,96803.03
2019-02-03T12:00:34.276Z,96796.75
2019-02-03T12:03:41.576Z,96798.42
2019-02-03T12:06:49.700Z,96798.01
2019-02-03T12:09:58.207Z,96791.30
2019-02-03T12:13:11.159Z,96790.05
2019-02-03T12:16:18.232Z,96793.82
2019-02-03T12:19:25.234Z,96801.78
2019-02-03T12:22:32.276Z,96803.88
2019-02-03T12:25:41.734Z,96808.91
2019-02-03T12:28:48.823Z,96808.06
2019-02-03T12:31:55.830Z,96816.02
2019-02-03T12:35:02.909Z,96818.97
2019-02-03T12:38:10.817Z,96814.77
2019-02-03T12:41:18.083Z,96824.82
2019-02-03T12:44:25.100Z,96831.11
2019-02-03T12:47:32.058Z,96822.30
2019-02-03T12:50:39.206Z,96822.75
2019-02-03T12:53:46.545Z,96827.34
2019-02-03T12:56:53.572Z,96824.01
2019-02-03T13:00:00.514Z,96823.56
2019-02-03T13:03:07.945Z,96826.52
2019-02-03T13:06:17.946Z,96834.47
2019-02-03T13:09:27.969Z,96835.33
2019-02-03T13:12:34.887Z,96842.42
2019-02-03T13:15:53.037Z,96845.80
2019-02-03T13:19:00.706Z,96850.41
2019-02-03T13:22:08.065Z,96858.78
2019-02-03T13:25:15.572Z,96871.36
2019-02-03T13:28:22.836Z,96872.61
2019-02-03T13:31:30.012Z,96882.27
2019-02-03T13:34:36.979Z,96893.17
2019-02-03T13:37:44.090Z,96891.92
2019-02-03T13:40:51.130Z,96897.77
2019-02-03T13:43:59.451Z,96905.77
2019-02-03T13:47:06.727Z,96920.41
2019-02-03T13:50:19.307Z,96931.73
2019-02-03T13:53:26.446Z,96935.10
2019-02-03T13:56:35.559Z,96945.16
2019-02-03T13:59:42.646Z,96959.41
2019-02-03T14:02:49.930Z,96960.66
2019-02-03T14:05:56.958Z,96967.38
2019-02-03T14:09:05.586Z,96967.80
2019-02-03T14:12:15.132Z,96971.16
2019-02-03T14:15:22.758Z,96984.55
2019-02-03T14:18:29.777Z,96996.72
2019-02-03T14:21:37.955Z,97003.02
2019-02-03T14:24:44.984Z,97003.03
2019-02-03T14:27:52.245Z,97003.86
2019-02-03T14:30:59.370Z,97010.97
2019-02-03T14:34:07.614Z,97011.82
2019-02-03T14:37:14.784Z,97021.87
2019-02-03T14:40:22.127Z,97026.07
2019-02-03T14:43:29.152Z,97026.91
2019-02-03T14:46:37.641Z,97036.11
2019-02-03T14:49:44.842Z,97030.69
2019-02-03T14:52:53.373Z,97036.14
2019-02-03T14:56:01.519Z,97036.14
2019-02-03T14:59:08.558Z,97037.84
2019-02-03T15:02:15.579Z,97039.09
2019-02-03T15:05:22.733Z,97034.86
2019-02-03T15:08:30.161Z,97038.64
2019-02-03T15:11:37.287Z,97039.49
2019-02-03T15:14:44.320Z,97049.55
2019-02-03T15:17:51.938Z,97048.30
2019-02-03T15:20:59.014Z,97052.07
2019-02-03T15:24:15.892Z,97050.81
2019-02-03T15:27:15.250Z,97051.66
2019-02-03T15:30:26.159Z,97059.21
2019-02-03T15:33:33.211Z,97068.02
2019-02-03T15:36:43.500Z,97069.68
2019-02-03T15:39:49.431Z,97068.02
2019-02-03T15:42:56.460Z,97086.88
2019-02-03T15:46:03.623Z,97080.15
2019-02-03T15:49:10.628Z,97091.91
2019-02-03T15:52:17.771Z,97093.19
2019-02-03T15:55:27.397Z,97105.31
2019-02-03T15:58:34.544Z,97112.87
2019-02-03T16:01:41.663Z,97114.55
2019-02-03T16:04:48.863Z,97128.39
2019-02-03T16:07:55.932Z,97125.88
2019-02-03T16:11:03.354Z,97135.09
2019-02-03T16:14:10.451Z,97139.70
2019-02-03T16:17:17.656Z,97144.30
2019-02-03T16:20:29.616Z,97148.92
2019-02-03T16:23:36.744Z,97152.30
2019-02-03T16:26:44.079Z,97160.23
2019-02-03T16:29:51.105Z,97180.80
2019-02-03T16:32:58.175Z,97187.52
2019-02-03T16:36:05.286Z,97188.78
2019-02-03T16:39:12.319Z,97200.89
2019-02-03T16:42:19.356Z,97207.19
2019-02-03T16:45:26.401Z,97209.70
2019-02-03T16:48:34.776Z,97215.16
2019-02-03T16:51:43.535Z,97228.16
2019-02-03T16:54:50.599Z,97236.11
2019-02-03T16:57:59.014Z,97250.37
2019-02-03T17:01:06.617Z,97258.32
2019-02-03T17:04:13.717Z,97260.81
2019-02-03T17:07:20.816Z,97271.70
2019-02-03T17:10:30.166Z,97284.71
2019-02-03T17:13:40.279Z,97286.38
2019-02-03T17:16:48.361Z,97296.03
2019-02-03T17:19:55.358Z,97302.72
2019-02-03T17:23:02.292Z,97304.83
2019-02-03T17:26:11.186Z,97309.85
2019-02-03T17:29:18.544Z,97318.25
2019-02-03T17:32:26.460Z,97325.81
2019-02-03T17:35:33.494Z,97327.06
2019-02-03T17:38:40.595Z,97324.97
2019-02-03T17:41:47.689Z,97338.36
2019-02-03T17:44:55.131Z,97344.66
2019-02-03T17:48:02.160Z,97342.63
2019-02-03T17:51:10.497Z,97342.28
2019-02-03T17:54:17.537Z,97351.48
2019-02-03T17:57:24.541Z,97352.30
2019-02-03T18:00:39.098Z,97364.87
2019-02-03T18:03:46.222Z,97371.13
2019-02-03T18:06:53.663Z,97373.69
2019-02-03T18:10:01.226Z,97380.34
2019-02-03T18:13:08.654Z,97388.29
2019-02-03T18:16:16.326Z,97394.56
2019-02-03T18:19:25.478Z,97406.38
2019-02-03T18:22:32.541Z,97411.37
2019-02-03T18:25:39.701Z,97418.94
2019-02-03T18:28:48.085Z,97420.16
2019-02-03T18:31:55.728Z,97426.88
2019-02-03T18:35:02.649Z,97430.23
2019-02-03T18:38:12.365Z,97430.23
2019-02-03T18:41:19.458Z,97437.83
2019-02-03T18:44:35.682Z,97439.83
2019-02-03T18:47:35.082Z,97452.03
2019-02-03T18:50:42.047Z,97454.07
2019-02-03T18:53:51.167Z,97456.68
2019-02-03T18:57:02.007Z,97461.23
2019-02-03T19:00:15.920Z,97467.97
2019-02-03T19:03:23.237Z,97476.34
2019-02-03T19:06:30.354Z,97476.34
2019-02-03T19:09:37.533Z,97480.55
2019-02-03T19:12:44.934Z,97487.26
2019-02-03T19:15:52.898Z,97490.19
2019-02-03T19:19:01.298Z,97493.98
2019-02-03T19:22:08.283Z,97503.23
2019-02-03T19:25:16.433Z,97512.78
2019-02-03T19:28:23.460Z,97514.52
2019-02-03T19:31:30.750Z,97516.61
2019-02-03T19:34:39.188Z,97514.56
2019-02-03T19:37:46.369Z,97525.86
2019-02-03T19:40:53.465Z,97524.19
2019-02-03T19:44:00.590Z,97527.12
2019-02-03T19:47:10.051Z,97533.05
2019-02-03T19:50:20.673Z,97538.06
2019-02-03T19:53:27.654Z,97541.41
2019-02-03T19:56:34.778Z,97553.59
2019-02-03T19:59:46.858Z,97566.16
2019-02-03T20:02:50.670Z,97564.44
2019-02-03T20:05:57.620Z,97567.78
2019-02-03T20:09:07.590Z,97573.70
2019-02-03T20:12:14.593Z,97578.77
2019-02-03T20:15:21.683Z,97584.64
2019-02-03T20:18:29.697Z,97598.50
2019-02-03T20:21:36.717Z,97603.09
2019-02-03T20:24:43.637Z,97609.36
2019-02-03T20:27:50.673Z,97619.47
2019-02-03T20:30:57.713Z,97625.30
2019-02-03T20:34:05.416Z,97622.78
2019-02-03T20:37:12.712Z,97630.80
2019-02-03T20:40:30.107Z,97629.49
2019-02-03T20:43:37.529Z,97646.25
2019-02-03T20:46:44.986Z,97647.05
2019-02-03T20:49:51.914Z,97648.33
2019-02-03T20:52:59.107Z,97646.67
2019-02-03T20:56:07.285Z,97654.20
2019-02-03T20:59:14.503Z,97656.38
2019-02-03T21:02:21.703Z,97663.06
2019-02-03T21:05:28.750Z,97666.80
2019-02-03T21:08:35.761Z,97672.31
2019-02-03T21:11:43.834Z,97671.41
2019-02-03T21:14:50.752Z,97677.32
2019-02-03T21:17:57.798Z,97682.31
2019-02-03T21:21:05.308Z,97686.06
2019-02-03T21:24:12.468Z,97693.19
2019-02-03T21:27:19.526Z,97700.30
2019-02-03T21:30:29.997Z,97707.05
2019-02-03T21:33:37.934Z,97706.64
2019-02-03T21:36:45.745Z,97709.97
2019-02-03T21:39:56.216Z,97714.60
2019-02-03T21:43:03.789Z,97716.66
2019-02-03T21:46:12.390Z,97719.59
2019-02-03T21:49:19.510Z,97719.59
2019-02-03T21:52:26.708Z,97724.25
2019-02-03T21:55:33.753Z,97724.64
2019-02-03T21:58:40.715Z,97727.56
2019-02-03T22:01:47.842Z,97737.22
2019-02-03T22:04:54.873Z,97737.63
2019-02-03T22:08:01.814Z,97742.23
2019-02-03T22:11:08.758Z,97747.69
2019-02-03T22:14:16.266Z,97755.66
2019-02-03T22:17:25.147Z,97754.84
2019-02-03T22:20:33.964Z,97767.84
2019-02-03T22:23:43.470Z,97772.92
2019-02-03T22:26:52.779Z,97778.76
2019-02-03T22:30:00.100Z,97790.53
2019-02-03T22:33:08.665Z,97788.44
2019-02-03T22:36:16.058Z,97791.81
2019-02-03T22:39:23.115Z,97801.45
2019-02-03T22:42:32.668Z,97805.23
2019-02-03T22:45:40.064Z,97810.75
2019-02-03T22:48:47.007Z,97816.14
2019-02-03T22:51:54.045Z,97825.36
2019-02-03T22:55:03.524Z,97828.30
2019-02-03T22:58:11.035Z,97827.04
2019-02-03T23:01:31.138Z,97833.75
2019-02-03T23:04:41.907Z,97836.27
2019-02-03T23:07:50.403Z,97846.01
2019-02-03T23:11:00.550Z,97848.09
2019-02-03T23:14:10.757Z,97844.33
2019-02-03T23:17:17.950Z,97856.47
2019-02-03T23:20:24.930Z,97858.23
2019-02-03T23:23:33.374Z,97861.23
2019-02-03T23:26:40.427Z,97876.66
2019-02-03T23:29:47.441Z,97877.47
2019-02-03T23:32:54.414Z,97875.33
2019-02-03T23:36:01.612Z,97881.17
2019-02-03T23:39:12.785Z,97884.52
2019-02-03T23:42:19.811Z,97891.91
2019-02-03T23:45:28.095Z,97897.23
2019-02-03T23:48:35.104Z,97893.33
2019-02-03T23:51:42.034Z,97904.63
2019-02-03T23:54:49.791Z,97908.27
2019-02-03T23:57:57.373Z,97911.19
